createdAt,value
2018-03-29T00:00:41.362Z,-2.7
2018-03-29T00:01:31.147Z,-2.7
2018-03-29T00:02:21.694Z,-2.7
2018-03-29T00:03:11.561Z,-2.7
2018-03-29T00:04:01.820Z,-2.8
2018-03-29T00:04:51.086Z,-2.8
2018-03-29T00:05:41.345Z,-2.8
2018-03-29T00:06:31.967Z,-2.8
2018-03-29T00:07:21.765Z,-2.8
2018-03-29T00:08:11.810Z,-2.8
2018-03-29T00:09:01.977Z,-2.8
2018-03-29T00:09:52.229Z,-2.8
2018-03-29T00:10:42.329Z,-2.8
2018-03-29T00:11:31.564Z,-2.8
2018-03-29T00:12:21.897Z,-2.8
2018-03-29T00:13:12.264Z,-2.8
2018-03-29T00:14:02.522Z,-2.8
2018-03-29T00:14:52.569Z,-2.8
2018-03-29T00:15:42.621Z,-2.8
2018-03-29T00:16:32.698Z,-2.9
2018-03-29T00:17:22.465Z,-2.9
2018-03-29T00:18:12.211Z,-2.9
2018-03-29T00:19:02.682Z,-2.9
2018-03-29T00:19:52.441Z,-2.9
2018-03-29T00:20:42.986Z,-2.9
2018-03-29T00:21:32.743Z,-2.9
2018-03-29T00:22:22.819Z,-2.9
2018-03-29T00:23:12.861Z,-2.9
2018-03-29T00:24:02.634Z,-2.9
2018-03-29T00:24:52.991Z,-2.9
2018-03-29T00:25:43.339Z,-2.9
2018-03-29T00:26:32.608Z,-3
2018-03-29T00:27:23.176Z,-3
2018-03-29T00:28:13.228Z,-3
2018-03-29T00:29:03.561Z,-3
2018-03-29T00:29:53.333Z,-3
2018-03-29T00:30:43.398Z,-3
2018-03-29T00:31:33.448Z,-3
2018-03-29T00:32:23.316Z,-3
2018-03-29T00:33:13.843Z,-3
2018-03-29T00:34:03.671Z,-3.1
2018-03-29T00:34:53.960Z,-3.1
2018-03-29T00:35:43.442Z,-3.1
2018-03-29T00:36:33.801Z,-3.1
2018-03-29T00:37:24.130Z,-3.1
2018-03-29T00:38:13.900Z,-3.1
2018-03-29T00:39:03.964Z,-3.1
2018-03-29T00:39:53.730Z,-3.1
2018-03-29T00:40:44.363Z,-3.1
2018-03-29T00:41:34.425Z,-3.1
2018-03-29T00:42:24.488Z,-3.2
2018-03-29T00:43:14.532Z,-3.1
2018-03-29T00:44:04.315Z,-3.1
2018-03-29T00:44:54.672Z,-3.2
2018-03-29T00:45:44.490Z,-3.2
2018-03-29T00:46:34.486Z,-3.2
2018-03-29T00:47:24.554Z,-3.2
2018-03-29T00:48:14.897Z,-3.2
2018-03-29T00:49:04.671Z,-3.2
2018-03-29T00:49:54.747Z,-3.2
2018-03-29T00:50:45.072Z,-3.2
2018-03-29T00:51:35.147Z,-3.3
2018-03-29T00:52:24.899Z,-3.3
2018-03-29T00:53:15.252Z,-3.3
2018-03-29T00:54:04.720Z,-3.3
2018-03-29T00:54:55.377Z,-3.3
2018-03-29T00:55:45.417Z,-3.3
2018-03-29T00:56:35.182Z,-3.3
2018-03-29T00:57:25.249Z,-3.3
2018-03-29T00:58:15.584Z,-3.3
2018-03-29T00:59:05.638Z,-3.3
2018-03-29T00:59:55.704Z,-3.3
2018-03-29T01:00:45.766Z,-3.3
2018-03-29T01:01:35.551Z,-3.3
2018-03-29T01:02:25.892Z,-3.3
2018-03-29T01:03:15.963Z,-3.3
2018-03-29T01:04:06.001Z,-3.3
2018-03-29T01:04:56.051Z,-3.3
2018-03-29T01:05:46.116Z,-3.3
2018-03-29T01:06:36.163Z,-3.3
2018-03-29T01:07:25.954Z,-3.4
2018-03-29T01:08:16.306Z,-3.3
2018-03-29T01:09:06.351Z,-3.4
2018-03-29T01:09:56.121Z,-3.3
2018-03-29T01:10:46.459Z,-3.4
2018-03-29T01:11:36.541Z,-3.4
2018-03-29T01:12:26.576Z,-3.4
2018-03-29T01:13:16.642Z,-3.4
2018-03-29T01:14:06.406Z,-3.4
2018-03-29T01:14:56.751Z,-3.4
2018-03-29T01:15:46.826Z,-3.4
2018-03-29T01:16:36.898Z,-3.4
2018-03-29T01:17:26.923Z,-3.4
2018-03-29T01:18:17.001Z,-3.4
2018-03-29T01:19:07.068Z,-3.4
2018-03-29T01:19:56.826Z,-3.4
2018-03-29T01:20:46.881Z,-3.4
2018-03-29T01:21:36.948Z,-3.4
2018-03-29T01:22:27.305Z,-3.4
2018-03-29T01:23:17.344Z,-3.5
2018-03-29T01:24:07.400Z,-3.5
2018-03-29T01:25:11.527Z,-3.4
2018-03-29T01:25:46.939Z,-3.5
2018-03-29T01:26:37.092Z,-3.5
2018-03-29T01:27:27.064Z,-3.5
2018-03-29T01:28:17.422Z,-3.5
2018-03-29T01:29:07.765Z,-3.5
2018-03-29T01:29:57.537Z,-3.6
2018-03-29T01:30:47.864Z,-3.6
2018-03-29T01:31:37.657Z,-3.5
2018-03-29T01:32:27.984Z,-3.6
2018-03-29T01:33:17.761Z,-3.6
2018-03-29T01:34:08.169Z,-3.5
2018-03-29T01:34:57.973Z,-3.6
2018-03-29T01:35:47.937Z,-3.6
2018-03-29T01:36:37.492Z,-3.6
2018-03-29T01:37:27.552Z,-3.6
2018-03-29T01:38:18.181Z,-3.6
2018-03-29T01:39:08.176Z,-3.6
2018-03-29T01:39:58.222Z,-3.6
2018-03-29T01:40:48.579Z,-3.6
2018-03-29T01:41:38.134Z,-3.6
2018-03-29T01:42:28.409Z,-3.6
2018-03-29T01:43:18.263Z,-3.6
2018-03-29T01:44:08.830Z,-3.6
2018-03-29T01:44:58.578Z,-3.6
2018-03-29T01:45:48.622Z,-3.6
2018-03-29T01:46:38.701Z,-3.6
2018-03-29T01:47:28.756Z,-3.6
2018-03-29T01:48:18.599Z,-3.6
2018-03-29T01:49:09.140Z,-3.6
2018-03-29T01:49:58.924Z,-3.6
2018-03-29T01:50:49.268Z,-3.6
2018-03-29T01:51:39.325Z,-3.7
2018-03-29T01:52:28.814Z,-3.6
2018-03-29T01:53:19.164Z,-3.7
2018-03-29T01:54:09.219Z,-3.7
2018-03-29T01:54:59.275Z,-3.6
2018-03-29T01:55:49.324Z,-3.7
2018-03-29T01:56:39.175Z,-3.7
2018-03-29T01:57:29.715Z,-3.7
2018-03-29T01:58:19.503Z,-3.7
2018-03-29T01:59:09.270Z,-3.7
2018-03-29T01:59:59.125Z,-3.7
2018-03-29T02:05:50.009Z,-3.8
2018-03-29T02:06:40.366Z,-3.8
2018-03-29T02:07:30.438Z,-3.8
2018-03-29T02:08:20.008Z,-3.8
2018-03-29T02:09:10.052Z,-3.8
2018-03-29T02:10:00.031Z,-3.8
2018-03-29T02:10:50.377Z,-3.9
2018-03-29T02:11:40.437Z,-3.9
2018-03-29T02:12:30.198Z,-3.9
2018-03-29T02:13:20.557Z,-3.9
2018-03-29T02:14:10.918Z,-3.9
2018-03-29T02:15:00.672Z,-3.9
2018-03-29T02:15:50.740Z,-3.9
2018-03-29T02:16:41.095Z,-3.9
2018-03-29T02:17:31.115Z,-3.9
2018-03-29T02:18:21.208Z,-3.9
2018-03-29T02:19:10.974Z,-3.9
2018-03-29T02:20:01.017Z,-3.9
2018-03-29T02:20:51.066Z,-3.9
2018-03-29T02:21:40.848Z,-3.9
2018-03-29T02:22:31.479Z,-4
2018-03-29T02:23:21.257Z,-3.9
2018-03-29T02:24:10.726Z,-4
2018-03-29T02:25:01.641Z,-3.9
2018-03-29T02:25:51.429Z,-3.9
2018-03-29T02:26:41.494Z,-4
2018-03-29T02:27:31.537Z,-4
2018-03-29T02:28:21.604Z,-4.1
2018-03-29T02:29:11.369Z,-4
2018-03-29T02:30:01.429Z,-4.1
2018-03-29T02:30:52.070Z,-4
2018-03-29T02:31:41.343Z,-4.1
2018-03-29T02:32:32.178Z,-4.1
2018-03-29T02:33:21.961Z,-4.1
2018-03-29T02:34:12.301Z,-4.1
2018-03-29T02:35:02.101Z,-4.1
2018-03-29T02:35:51.844Z,-4.1
2018-03-29T02:36:42.198Z,-4.1
2018-03-29T02:37:32.254Z,-4.1
2018-03-29T02:38:22.016Z,-4.1
2018-03-29T02:39:12.352Z,-4.1
2018-03-29T02:40:02.220Z,-4.1
2018-03-29T02:40:52.464Z,-4.1
2018-03-29T02:41:42.833Z,-4.1
2018-03-29T02:42:32.393Z,-4.1
2018-03-29T02:43:22.641Z,-4.1
2018-03-29T02:44:12.711Z,-4.1
2018-03-29T02:45:02.263Z,-4.1
2018-03-29T02:45:52.538Z,-4.1
2018-03-29T02:46:42.471Z,-4.2
2018-03-29T02:47:32.940Z,-4.2
2018-03-29T02:48:23.031Z,-4.2
2018-03-29T02:49:12.849Z,-4.2
2018-03-29T02:50:02.821Z,-4.2
2018-03-29T02:50:52.963Z,-4.2
2018-03-29T02:51:43.020Z,-4.2
2018-03-29T02:52:33.586Z,-4.3
2018-03-29T02:53:23.345Z,-4.3
2018-03-29T02:54:13.208Z,-4.3
2018-03-29T02:55:03.558Z,-4.3
2018-03-29T02:55:53.530Z,-4.3
2018-03-29T02:56:43.570Z,-4.3
2018-03-29T02:57:33.234Z,-4.3
2018-03-29T02:58:23.987Z,-4.3
2018-03-29T02:59:13.735Z,-4.3
2018-03-29T03:00:03.532Z,-4.3
2018-03-29T03:00:53.578Z,-4.3
2018-03-29T03:01:44.220Z,-4.3
2018-03-29T03:02:34.270Z,-4.3
2018-03-29T03:03:23.842Z,-4.3
2018-03-29T03:04:13.698Z,-4.3
2018-03-29T03:05:03.879Z,-4.3
2018-03-29T03:05:54.512Z,-4.3
2018-03-29T03:06:43.989Z,-4.3
2018-03-29T03:07:34.418Z,-4.3
2018-03-29T03:08:24.394Z,-4.3
2018-03-29T03:09:14.468Z,-4.3
2018-03-29T03:10:04.214Z,-4.3
2018-03-29T03:10:54.910Z,-4.3
2018-03-29T03:11:44.524Z,-4.3
2018-03-29T03:12:34.684Z,-4.3
2018-03-29T03:13:25.040Z,-4.3
2018-03-29T03:14:15.106Z,-4.4
2018-03-29T03:15:04.565Z,-4.3
2018-03-29T03:15:54.706Z,-4.3
2018-03-29T03:16:44.957Z,-4.4
2018-03-29T03:17:34.831Z,-4.4
2018-03-29T03:18:24.786Z,-4.3
2018-03-29T03:19:15.138Z,-4.3
2018-03-29T03:20:04.902Z,-4.4
2018-03-29T03:20:54.954Z,-4.4
2018-03-29T03:21:45.035Z,-4.4
2018-03-29T03:22:35.085Z,-4.4
2018-03-29T03:23:25.150Z,-4.4
2018-03-29T03:24:15.770Z,-4.4
2018-03-29T03:25:05.813Z,-4.4
2018-03-29T03:25:55.401Z,-4.4
2018-03-29T03:26:45.673Z,-4.4
2018-03-29T03:27:36.062Z,-4.4
2018-03-29T03:28:25.775Z,-4.4
2018-03-29T03:29:15.847Z,-4.4
2018-03-29T03:30:05.909Z,-4.4
2018-03-29T03:30:55.468Z,-4.4
2018-03-29T03:31:46.312Z,-4.4
2018-03-29T03:32:36.382Z,-4.4
2018-03-29T03:33:26.401Z,-4.4
2018-03-29T03:34:16.488Z,-4.4
2018-03-29T03:35:06.561Z,-4.5
2018-03-29T03:35:56.020Z,-4.5
2018-03-29T03:36:46.367Z,-4.5
2018-03-29T03:37:36.523Z,-4.5
2018-03-29T03:38:26.785Z,-4.5
2018-03-29T03:39:16.248Z,-4.5
2018-03-29T03:40:06.305Z,-4.5
2018-03-29T03:40:56.650Z,-4.5
2018-03-29T03:41:46.515Z,-4.6
2018-03-29T03:42:36.186Z,-4.5
2018-03-29T03:43:26.825Z,-4.6
2018-03-29T03:44:16.877Z,-4.5
2018-03-29T03:45:06.926Z,-4.6
2018-03-29T03:45:56.507Z,-4.6
2018-03-29T03:46:47.357Z,-4.5
2018-03-29T03:47:36.819Z,-4.5
2018-03-29T03:48:27.169Z,-4.6
2018-03-29T03:49:17.220Z,-4.6
2018-03-29T03:50:07.589Z,-4.6
2018-03-29T03:50:57.622Z,-4.6
2018-03-29T03:51:47.409Z,-4.6
2018-03-29T03:52:37.755Z,-4.6
2018-03-29T03:53:27.514Z,-4.6
2018-03-29T03:54:17.869Z,-4.6
2018-03-29T03:55:07.922Z,-4.6
2018-03-29T03:55:57.968Z,-4.6
2018-03-29T03:56:47.755Z,-4.6
2018-03-29T03:57:38.080Z,-4.6
2018-03-29T03:58:27.872Z,-4.6
2018-03-29T03:59:18.222Z,-4.6
2018-03-29T04:00:08.262Z,-4.6
2018-03-29T04:00:58.044Z,-4.6
2018-03-29T04:01:48.404Z,-4.6
2018-03-29T04:02:38.462Z,-4.6
2018-03-29T04:03:28.506Z,-4.6
2018-03-29T04:04:18.594Z,-4.6
2018-03-29T04:05:08.617Z,-4.6
2018-03-29T04:05:58.384Z,-4.6
2018-03-29T04:06:48.484Z,-4.6
2018-03-29T04:07:38.503Z,-4.6
2018-03-29T04:08:28.841Z,-4.6
2018-03-29T04:09:18.618Z,-4.6
2018-03-29T04:10:08.674Z,-4.6
2018-03-29T04:10:59.008Z,-4.6
2018-03-29T04:11:49.073Z,-4.6
2018-03-29T04:12:38.901Z,-4.6
2018-03-29T04:13:29.207Z,-4.6
2018-03-29T04:14:18.977Z,-4.6
2018-03-29T04:15:09.307Z,-4.6
2018-03-29T04:15:59.092Z,-4.6
2018-03-29T04:16:49.140Z,-4.6
2018-03-29T04:17:39.478Z,-4.6
2018-03-29T04:18:29.533Z,-4.6
2018-03-29T04:19:19.619Z,-4.6
2018-03-29T04:20:09.651Z,-4.6
2018-03-29T04:20:59.725Z,-4.6
2018-03-29T04:21:49.765Z,-4.6
2018-03-29T04:22:39.542Z,-4.6
2018-03-29T04:23:29.923Z,-4.6
2018-03-29T04:24:19.650Z,-4.6
2018-03-29T04:25:10.011Z,-4.6
2018-03-29T04:26:00.056Z,-4.6
2018-03-29T04:26:50.113Z,-4.6
2018-03-29T04:27:40.168Z,-4.6
2018-03-29T04:28:30.218Z,-4.6
2018-03-29T04:29:20.008Z,-4.6
2018-03-29T04:30:10.353Z,-4.6
2018-03-29T04:31:00.122Z,-4.6
2018-03-29T04:31:50.279Z,-4.6
2018-03-29T04:32:40.261Z,-4.7
2018-03-29T04:33:30.605Z,-4.6
2018-03-29T04:34:20.643Z,-4.6
2018-03-29T04:35:10.482Z,-4.6
2018-03-29T04:36:00.193Z,-4.7
2018-03-29T04:36:50.530Z,-4.6
2018-03-29T04:37:40.021Z,-4.6
2018-03-29T04:38:30.744Z,-4.6
2018-03-29T04:39:21.050Z,-4.6
2018-03-29T04:40:10.788Z,-4.6
2018-03-29T04:41:00.820Z,-4.6
2018-03-29T04:41:50.600Z,-4.6
2018-03-29T04:42:40.543Z,-4.6
2018-03-29T04:43:30.724Z,-4.6
2018-03-29T04:44:21.163Z,-4.6
2018-03-29T04:45:11.123Z,-4.6
2018-03-29T04:46:01.447Z,-4.6
2018-03-29T04:46:51.335Z,-4.6
2018-03-29T04:47:41.314Z,-4.6
2018-03-29T04:48:31.059Z,-4.5
2018-03-29T04:49:21.725Z,-4.5
2018-03-29T04:50:11.753Z,-4.5
2018-03-29T04:51:00.942Z,-4.5
2018-03-29T04:51:51.272Z,-4.5
2018-03-29T04:52:41.659Z,-4.4
2018-03-29T04:53:31.971Z,-4.4
2018-03-29T04:54:22.056Z,-4.4
2018-03-29T04:55:12.115Z,-4.4
2018-03-29T04:56:01.682Z,-4.4
2018-03-29T04:56:52.228Z,-4.4
2018-03-29T04:57:41.504Z,-4.3
2018-03-29T04:58:32.038Z,-4.3
2018-03-29T04:59:22.118Z,-4.3
2018-03-29T05:00:12.462Z,-4.3
2018-03-29T05:01:02.521Z,-4.3
2018-03-29T05:01:52.164Z,-4.2
2018-03-29T05:02:42.323Z,-4.2
2018-03-29T05:03:31.902Z,-4.1
2018-03-29T05:04:22.462Z,-4.1
2018-03-29T05:05:12.311Z,-4.1
2018-03-29T05:06:02.282Z,-4.1
2018-03-29T05:06:52.939Z,-4
2018-03-29T05:07:42.695Z,-4
2018-03-29T05:08:32.739Z,-4
2018-03-29T05:09:22.231Z,-3.9
2018-03-29T05:10:13.149Z,-3.9
2018-03-29T05:11:03.026Z,-3.8
2018-03-29T05:11:52.984Z,-3.8
2018-03-29T05:13:33.083Z,-3.7
2018-03-29T05:14:22.951Z,-3.6
2018-03-29T05:15:12.814Z,-3.6
2018-03-29T05:16:03.559Z,-3.5
2018-03-29T05:16:53.329Z,-3.5
2018-03-29T05:17:43.709Z,-3.4
2018-03-29T05:18:33.437Z,-3.3
2018-03-29T05:19:23.490Z,-3.3
2018-03-29T05:20:13.568Z,-3.2
2018-03-29T05:21:03.415Z,-3.1
2018-03-29T05:21:53.656Z,-3.1
2018-03-29T05:22:43.833Z,-3
2018-03-29T05:23:33.958Z,-2.9
2018-03-29T05:24:23.563Z,-2.8
2018-03-29T05:25:13.900Z,-2.7
2018-03-29T05:26:03.673Z,-2.6
2018-03-29T05:26:54.315Z,-2.5
2018-03-29T05:27:44.187Z,-2.3
2018-03-29T05:28:33.845Z,-2.2
2018-03-29T05:29:23.907Z,-2
2018-03-29T05:30:14.267Z,-1.8
2018-03-29T05:31:04.327Z,-1.7
2018-03-29T05:31:54.191Z,-1.5
2018-03-29T05:32:44.142Z,-1.4
2018-03-29T05:33:34.477Z,-1.3
2018-03-29T05:34:24.856Z,-1.1
2018-03-29T05:35:14.605Z,-1.1
2018-03-29T05:36:54.224Z,-0.8
2018-03-29T05:37:44.869Z,-0.8
2018-03-29T05:38:34.853Z,-0.7
2018-03-29T05:39:24.894Z,-0.6
2018-03-29T05:40:14.755Z,-0.5
2018-03-29T05:41:05.283Z,-0.4
2018-03-29T05:41:55.352Z,-0.3
2018-03-29T05:42:45.409Z,-0.2
2018-03-29T05:43:35.462Z,-0.1
2018-03-29T05:44:25.525Z,0
2018-03-29T05:45:15.586Z,0.1
2018-03-29T05:46:05.060Z,0.2
2018-03-29T05:46:55.935Z,0.4
2018-03-29T05:47:45.744Z,0.5
2018-03-29T05:48:35.805Z,0.6
2018-03-29T05:49:25.890Z,0.8
2018-03-29T05:50:15.924Z,0.9
2018-03-29T05:51:05.992Z,1.1
2018-03-29T05:51:56.037Z,1.3
2018-03-29T05:52:46.096Z,1.6
2018-03-29T05:53:36.163Z,1.8
2018-03-29T05:54:26.208Z,2
2018-03-29T05:55:15.991Z,2.3
2018-03-29T05:56:06.050Z,2.5
2018-03-29T05:56:56.413Z,2.8
2018-03-29T05:57:46.451Z,3.1
2018-03-29T05:58:36.244Z,3.4
2018-03-29T05:59:26.586Z,3.7
2018-03-29T06:00:16.341Z,3.9
2018-03-29T06:01:06.209Z,4.3
2018-03-29T06:01:56.561Z,4.5
2018-03-29T06:02:46.506Z,4.8
2018-03-29T06:03:36.281Z,5.1
2018-03-29T06:04:26.937Z,5.4
2018-03-29T06:05:16.299Z,5.8
2018-03-29T06:06:06.756Z,6.1
2018-03-29T06:06:56.516Z,6.4
2018-03-29T06:07:47.181Z,6.7
2018-03-29T06:08:37.224Z,7
2018-03-29T06:09:26.693Z,1.8
2018-03-29T06:10:17.105Z,8.3
2018-03-29T06:11:06.697Z,14.6
2018-03-29T06:11:57.225Z,15.2
2018-03-29T06:12:47.510Z,19.1
2018-03-29T06:13:37.087Z,22.8
2018-03-29T06:14:27.356Z,23.5
2018-03-29T06:15:17.396Z,22
2018-03-29T06:16:07.253Z,20.3
2018-03-29T06:16:57.362Z,19.6
2018-03-29T06:17:47.641Z,19.8
2018-03-29T06:18:37.927Z,20.4
2018-03-29T06:20:18.080Z,21.8
2018-03-29T06:21:07.807Z,22.1
2018-03-29T06:21:57.972Z,22.1
2018-03-29T06:22:47.920Z,22.1
2018-03-29T06:23:37.779Z,22
2018-03-29T06:24:27.741Z,22.1
2018-03-29T06:25:18.122Z,22.3
2018-03-29T06:26:07.862Z,22.6
2018-03-29T06:26:57.927Z,22.8
2018-03-29T06:27:48.357Z,23
2018-03-29T06:28:38.329Z,23.2
2018-03-29T06:29:28.684Z,23.3
2018-03-29T06:30:18.790Z,23.4
2018-03-29T06:31:08.516Z,23.6
2018-03-29T06:31:58.555Z,23.8
2018-03-29T06:32:48.633Z,23.9
2018-03-29T06:33:38.686Z,24.1
2018-03-29T06:34:29.039Z,24.3
2018-03-29T06:35:19.093Z,24.4
2018-03-29T06:36:08.866Z,24.6
2018-03-29T06:36:58.905Z,24.8
2018-03-29T06:37:48.973Z,24.9
2018-03-29T06:38:39.105Z,25.1
2018-03-29T06:39:28.881Z,25.3
2018-03-29T06:40:19.158Z,25.4
2018-03-29T06:41:09.206Z,25.6
2018-03-29T06:41:59.264Z,25.8
2018-03-29T06:42:49.609Z,25.9
2018-03-29T06:43:39.673Z,26.1
2018-03-29T06:44:29.780Z,26.3
2018-03-29T06:45:19.790Z,26.4
2018-03-29T06:46:09.873Z,26.6
2018-03-29T06:47:00.006Z,26.8
2018-03-29T06:47:49.976Z,26.9
2018-03-29T06:48:39.737Z,27.1
2018-03-29T06:49:29.508Z,27.3
2018-03-29T06:50:19.849Z,27.4
2018-03-29T06:51:09.908Z,27.6
2018-03-29T06:52:00.251Z,27.4
2018-03-29T06:52:50.323Z,27.5
2018-03-29T06:53:40.378Z,27.7
2018-03-29T06:54:29.936Z,27.9
2018-03-29T06:55:20.001Z,28.1
2018-03-29T06:56:10.563Z,28.2
2018-03-29T06:57:00.313Z,28.3
2018-03-29T06:57:50.378Z,28.4
2018-03-29T06:58:40.735Z,28.3
2018-03-29T06:59:30.796Z,28.1
2018-03-29T07:00:20.850Z,28.1
2018-03-29T07:01:10.418Z,28
2018-03-29T07:02:00.691Z,27.7
2018-03-29T07:02:50.725Z,27.6
2018-03-29T07:03:40.805Z,27.7
2018-03-29T07:05:21.000Z,27.9
2018-03-29T07:06:10.986Z,27.9
2018-03-29T07:07:01.030Z,27.4
2018-03-29T07:07:51.355Z,27.1
2018-03-29T07:08:41.445Z,26.8
2018-03-29T07:09:31.000Z,26.9
2018-03-29T07:10:20.988Z,27
2018-03-29T07:11:11.122Z,27.3
2018-03-29T07:12:01.688Z,27.4
2018-03-29T07:12:51.447Z,27.6
2018-03-29T07:13:41.211Z,27.8
2018-03-29T07:15:21.337Z,28
2018-03-29T07:16:11.672Z,28.2
2018-03-29T07:17:01.747Z,28.4
2018-03-29T07:17:52.099Z,28.6
2018-03-29T07:18:41.857Z,28.8
2018-03-29T07:19:31.924Z,29
2018-03-29T07:20:21.994Z,29.2
2018-03-29T07:21:12.149Z,29.4
2018-03-29T07:22:02.396Z,29.4
2018-03-29T07:22:52.171Z,29.6
2018-03-29T07:23:42.221Z,29.8
2018-03-29T07:24:31.986Z,30.1
2018-03-29T07:25:22.326Z,30.3
2018-03-29T07:26:12.388Z,30.6
2018-03-29T07:27:02.770Z,30.8
2018-03-29T07:27:52.221Z,30.9
2018-03-29T07:28:42.890Z,31.1
2018-03-29T07:29:32.935Z,31.3
2018-03-29T07:30:22.716Z,31.6
2018-03-29T07:31:13.059Z,31.8
2018-03-29T07:32:02.816Z,32
2018-03-29T07:32:53.154Z,32.2
2018-03-29T07:33:42.637Z,32.4
2018-03-29T07:34:33.287Z,32.6
2018-03-29T07:35:22.768Z,32.6
2018-03-29T07:36:13.111Z,32.9
2018-03-29T07:37:02.691Z,33.1
2018-03-29T07:37:53.530Z,33.3
2018-03-29T07:38:43.290Z,33.4
2018-03-29T07:39:33.368Z,33.7
2018-03-29T07:40:23.718Z,33.9
2018-03-29T07:41:13.465Z,34.1
2018-03-29T07:42:03.048Z,34.3
2018-03-29T07:42:53.685Z,34.5
2018-03-29T07:43:43.549Z,34.7
2018-03-29T07:44:33.721Z,34.9
2018-03-29T07:45:24.058Z,35.1
2018-03-29T07:46:13.638Z,35.3
2018-03-29T07:47:03.893Z,35.5
2018-03-29T07:47:53.952Z,35.7
2018-03-29T07:48:44.019Z,35.9
2018-03-29T07:49:33.787Z,36.1
2018-03-29T07:50:24.135Z,36.3
2018-03-29T07:51:14.189Z,36.4
2018-03-29T07:52:04.269Z,36.6
2018-03-29T07:52:54.029Z,36.8
2018-03-29T07:53:44.664Z,37
2018-03-29T07:54:33.944Z,37.2
2018-03-29T07:55:24.792Z,37.3
2018-03-29T07:56:14.574Z,37.5
2018-03-29T07:57:04.920Z,37.7
2018-03-29T07:57:54.764Z,37.9
2018-03-29T07:58:44.754Z,38.1
2018-03-29T07:59:34.305Z,38.3
2018-03-29T08:00:25.210Z,38.4
2018-03-29T08:01:15.201Z,38.6
2018-03-29T08:02:04.687Z,38.8
2018-03-29T08:02:55.054Z,38.9
2018-03-29T08:03:44.912Z,39.1
2018-03-29T08:04:34.882Z,39.3
2018-03-29T08:05:25.319Z,39.4
2018-03-29T08:06:15.347Z,39.6
2018-03-29T08:07:05.439Z,39.8
2018-03-29T08:07:55.007Z,39.9
2018-03-29T08:08:45.474Z,40.1
2018-03-29T08:09:35.537Z,40.3
2018-03-29T08:10:25.682Z,40.4
2018-03-29T08:11:15.661Z,40.6
2018-03-29T08:12:05.424Z,40.8
2018-03-29T08:12:55.786Z,40.9
2018-03-29T08:13:45.560Z,41.1
2018-03-29T08:14:36.189Z,41.3
2018-03-29T08:15:25.469Z,41.4
2018-03-29T08:16:15.824Z,41.6
2018-03-29T08:17:06.173Z,41.8
2018-03-29T08:17:55.945Z,41.9
2018-03-29T08:18:46.196Z,42.1
2018-03-29T08:19:35.977Z,42.3
2018-03-29T08:20:26.321Z,42.4
2018-03-29T08:21:16.187Z,42.6
2018-03-29T08:22:06.261Z,42.8
2018-03-29T08:22:56.216Z,43
2018-03-29T08:23:46.666Z,43.1
2018-03-29T08:24:36.626Z,43.3
2018-03-29T08:25:26.781Z,43.4
2018-03-29T08:26:16.738Z,43.6
2018-03-29T08:27:06.521Z,43.7
2018-03-29T08:27:56.583Z,43.9
2018-03-29T08:28:46.620Z,44.1
2018-03-29T08:29:37.272Z,44.3
2018-03-29T08:30:27.349Z,44.4
2018-03-29T08:31:16.995Z,44.6
2018-03-29T08:32:07.167Z,44.8
2018-03-29T08:32:56.948Z,44.9
2018-03-29T08:33:47.014Z,45.1
2018-03-29T08:34:37.360Z,45.3
2018-03-29T08:35:27.216Z,45.4
2018-03-29T08:36:17.788Z,45.6
2018-03-29T08:37:07.552Z,45.8
2018-03-29T08:37:57.605Z,45.9
2018-03-29T08:38:47.426Z,46
2018-03-29T08:39:37.514Z,46.3
2018-03-29T08:40:27.789Z,46.4
2018-03-29T08:41:17.149Z,46.5
2018-03-29T08:42:07.620Z,46.7
2018-03-29T08:42:57.276Z,46.8
2018-03-29T08:43:47.537Z,47
2018-03-29T08:44:37.899Z,47.2
2018-03-29T08:45:27.659Z,47.3
2018-03-29T08:46:18.017Z,47.5
2018-03-29T08:47:07.987Z,47.6
2018-03-29T08:47:58.342Z,47.8
2018-03-29T08:48:48.701Z,47.9
2018-03-29T08:49:38.441Z,48.1
2018-03-29T08:50:28.206Z,48.3
2018-03-29T08:51:18.593Z,48.4
2018-03-29T08:52:08.653Z,48.6
2018-03-29T08:52:58.968Z,48.8
2018-03-29T08:53:48.849Z,48.9
2018-03-29T08:54:38.635Z,49.1
2018-03-29T08:55:29.162Z,49.1
2018-03-29T08:56:18.928Z,49.3
2018-03-29T08:57:09.002Z,49.4
2018-03-29T08:57:59.057Z,49.6
2018-03-29T08:58:49.117Z,49.7
2018-03-29T08:59:39.185Z,49.9
2018-03-29T09:00:29.532Z,50.1
2018-03-29T09:01:19.302Z,50.2
2018-03-29T09:02:09.380Z,50.3
2018-03-29T09:02:59.760Z,50.4
2018-03-29T09:03:49.003Z,50.5
2018-03-29T09:04:39.558Z,50.7
2018-03-29T09:05:29.919Z,50.8
2018-03-29T09:06:19.372Z,51
2018-03-29T09:07:10.029Z,51.1
2018-03-29T09:07:59.508Z,51.2
2018-03-29T09:08:49.902Z,51.4
2018-03-29T09:09:39.517Z,51.4
2018-03-29T09:10:29.684Z,51.6
2018-03-29T09:11:20.032Z,51.7
2018-03-29T09:12:10.097Z,51.8
2018-03-29T09:13:00.247Z,52
2018-03-29T09:13:49.927Z,52.1
2018-03-29T09:14:40.264Z,52.2
2018-03-29T09:15:30.183Z,52.3
2018-03-29T09:16:20.399Z,52.4
2018-03-29T09:17:10.464Z,52.6
2018-03-29T09:18:00.522Z,52.7
2018-03-29T09:18:50.171Z,52.8
2018-03-29T09:19:40.626Z,52.8
2018-03-29T09:20:30.714Z,52.9
2018-03-29T09:21:20.772Z,53.1
2018-03-29T09:22:11.120Z,53.3
2018-03-29T09:23:01.167Z,53.4
2018-03-29T09:23:50.745Z,53.5
2018-03-29T09:24:41.008Z,53.6
2018-03-29T09:25:31.056Z,53.8
2018-03-29T09:26:20.933Z,53.8
2018-03-29T09:27:10.943Z,53.9
2018-03-29T09:28:01.241Z,54.1
2018-03-29T09:28:50.830Z,54.2
2018-03-29T09:29:41.176Z,54.3
2018-03-29T09:30:31.228Z,54.4
2018-03-29T09:31:21.293Z,54.5
2018-03-29T09:32:10.771Z,54.6
2018-03-29T09:33:00.836Z,54.8
2018-03-29T09:33:51.278Z,54.8
2018-03-29T09:34:41.234Z,55
2018-03-29T09:35:31.306Z,55.1
2018-03-29T09:36:21.366Z,55.1
2018-03-29T09:37:11.425Z,55.3
2018-03-29T09:38:02.282Z,55.4
2018-03-29T09:38:52.321Z,55.6
2018-03-29T09:39:42.102Z,55.6
2018-03-29T09:40:31.868Z,55.7
2018-03-29T09:41:22.502Z,55.8
2018-03-29T09:42:12.271Z,55.9
2018-03-29T09:43:02.340Z,56
2018-03-29T09:43:52.695Z,56.1
2018-03-29T09:44:42.751Z,56.3
2018-03-29T09:45:32.514Z,56.3
2018-03-29T09:46:22.873Z,56.4
2018-03-29T09:47:12.442Z,56.6
2018-03-29T09:48:02.515Z,56.7
2018-03-29T09:48:53.052Z,56.8
2018-03-29T09:49:43.112Z,56.8
2018-03-29T09:50:33.189Z,56.9
2018-03-29T09:51:22.549Z,57.1
2018-03-29T09:52:13.114Z,57.2
2018-03-29T09:53:02.821Z,57.3
2018-03-29T09:53:53.141Z,57.3
2018-03-29T09:54:43.193Z,57.4
2018-03-29T09:55:33.275Z,57.6
2018-03-29T09:56:23.309Z,57.7
2018-03-29T09:58:03.445Z,57.9
2018-03-29T09:58:53.312Z,57.9
2018-03-29T09:59:43.568Z,58.1
2018-03-29T10:00:33.344Z,58.3
2018-03-29T10:01:23.692Z,58.4
2018-03-29T10:02:13.754Z,58.5
2018-03-29T10:03:54.174Z,58.7
2018-03-29T10:04:43.643Z,58.8
2018-03-29T10:05:34.091Z,58.9
2018-03-29T10:06:24.351Z,58.9
2018-03-29T10:07:13.820Z,59.1
2018-03-29T10:08:04.185Z,59.2
2018-03-29T10:08:53.965Z,59.3
2018-03-29T10:09:44.103Z,59.5
2018-03-29T10:10:33.676Z,59.6
2018-03-29T10:11:23.935Z,59.7
2018-03-29T10:12:14.043Z,59.8
2018-03-29T10:13:04.065Z,59.8
2018-03-29T10:13:54.409Z,59.9
2018-03-29T10:14:44.469Z,60
2018-03-29T10:15:34.546Z,60.1
2018-03-29T10:16:24.323Z,60.3
2018-03-29T10:17:14.646Z,60.4
2018-03-29T10:18:04.426Z,60.4
2018-03-29T10:18:54.619Z,60.5
2018-03-29T10:19:44.838Z,60.6
2018-03-29T10:20:34.612Z,60.7
2018-03-29T10:21:24.393Z,60.8
2018-03-29T10:22:15.021Z,60.9
2018-03-29T10:23:04.804Z,61.1
2018-03-29T10:23:55.160Z,61.1
2018-03-29T10:24:44.635Z,61.2
2018-03-29T10:25:34.999Z,61.3
2018-03-29T10:26:25.062Z,61.4
2018-03-29T10:27:15.393Z,61.5
2018-03-29T10:28:05.242Z,61.6
2018-03-29T10:28:55.529Z,61.7
2018-03-29T10:29:45.291Z,61.8
2018-03-29T10:30:35.347Z,61.9
2018-03-29T10:31:25.413Z,62
2018-03-29T10:32:15.520Z,62.1
2018-03-29T10:33:05.835Z,62.2
2018-03-29T10:33:55.875Z,62.3
2018-03-29T10:34:45.654Z,62.3
2018-03-29T10:35:35.715Z,62.3
2018-03-29T10:36:25.772Z,62.3
2018-03-29T10:37:16.170Z,62.3
2018-03-29T10:38:06.191Z,62.3
2018-03-29T10:38:55.673Z,62.5
2018-03-29T10:39:46.327Z,62.6
2018-03-29T10:40:36.378Z,62.7
2018-03-29T10:41:26.144Z,62.8
2018-03-29T10:42:16.297Z,62.8
2018-03-29T10:43:06.275Z,62.9
2018-03-29T10:43:56.611Z,62.9
2018-03-29T10:44:46.471Z,63
2018-03-29T10:45:36.539Z,63.1
2018-03-29T10:46:26.843Z,63.2
2018-03-29T10:47:16.871Z,63.3
2018-03-29T10:48:06.348Z,63.4
2018-03-29T10:48:56.988Z,63.4
2018-03-29T10:49:46.468Z,63.6
2018-03-29T10:50:37.106Z,63.7
2018-03-29T10:51:26.873Z,63.8
2018-03-29T10:52:17.234Z,63.9
2018-03-29T10:53:06.994Z,63.9
2018-03-29T10:53:57.069Z,64
2018-03-29T10:54:47.120Z,64.1
2018-03-29T10:55:37.179Z,62.6
2018-03-29T10:56:27.528Z,61.2
2018-03-29T10:57:17.393Z,61
2018-03-29T10:58:07.372Z,61.2
2018-03-29T10:58:57.710Z,61.5
2018-03-29T10:59:47.485Z,61.8
2018-03-29T11:00:37.265Z,61.9
2018-03-29T11:01:27.892Z,62.1
2018-03-29T11:02:17.943Z,62.1
2018-03-29T11:03:08.002Z,62.3
2018-03-29T11:03:57.788Z,62.4
2018-03-29T11:04:47.846Z,62.6
2018-03-29T11:05:37.912Z,62.8
2018-03-29T11:06:28.065Z,62.8
2018-03-29T11:07:18.328Z,62.9
2018-03-29T11:08:08.373Z,63.1
2018-03-29T11:08:58.452Z,63.2
2018-03-29T11:09:48.220Z,63.4
2018-03-29T11:10:37.990Z,63.5
2018-03-29T11:11:28.425Z,63.7
2018-03-29T11:12:18.398Z,63.9
2018-03-29T11:13:08.475Z,64
2018-03-29T11:13:58.617Z,64.1
2018-03-29T11:14:48.382Z,64.3
2018-03-29T11:15:38.740Z,64.4
2018-03-29T11:16:29.006Z,64.5
2018-03-29T11:17:19.060Z,64.6
2018-03-29T11:18:08.825Z,64.8
2018-03-29T11:18:59.192Z,64.9
2018-03-29T11:19:48.750Z,65
2018-03-29T11:20:39.014Z,65.1